createdAt,value
2018-12-17T00:00:35.141Z,20.32
2018-12-17T00:03:06.051Z,19.10
2018-12-17T00:05:41.689Z,27.67
2018-12-17T00:08:09.542Z,21.70
2018-12-17T00:10:38.465Z,22.73
2018-12-17T00:13:07.252Z,25.02
2018-12-17T00:15:36.972Z,19.67
2018-12-17T00:18:06.942Z,23.80
2018-12-17T00:20:35.733Z,21.83
2018-12-17T00:23:04.468Z,20.47
2018-12-17T00:25:35.089Z,25.82
2018-12-17T00:28:08.109Z,24.63
2018-12-17T00:30:34.601Z,19.83
2018-12-17T00:33:03.370Z,22.10
2018-12-17T00:35:32.062Z,20.60
2018-12-17T00:38:00.785Z,21.63
2018-12-17T00:40:29.600Z,22.47
2018-12-17T00:42:58.300Z,22.17
2018-12-17T00:45:27.133Z,27.33
2018-12-17T00:47:55.837Z,19.87
2018-12-17T00:50:24.620Z,21.13
2018-12-17T00:52:53.520Z,16.02
2018-12-17T00:55:22.301Z,27.77
2018-12-17T00:57:51.020Z,19.30
2018-12-17T01:00:19.947Z,25.97
2018-12-17T01:02:48.809Z,26.57
2018-12-17T01:05:17.601Z,21.10
2018-12-17T01:07:46.373Z,20.85
2018-12-17T01:10:15.128Z,18.37
2018-12-17T01:12:43.976Z,26.50
2018-12-17T01:15:12.796Z,23.73
2018-12-17T01:17:41.624Z,22.60
2018-12-17T01:20:10.467Z,19.13
2018-12-17T01:22:39.362Z,27.93
2018-12-17T01:25:08.185Z,24.87
2018-12-17T01:27:37.529Z,20.88
2018-12-17T01:30:07.541Z,19.97
2018-12-17T01:32:36.753Z,24.27
2018-12-17T01:35:05.862Z,19.67
2018-12-17T01:37:34.800Z,19.97
2018-12-17T01:45:58.323Z,21.23
2018-12-17T01:48:27.031Z,21.05
2018-12-17T01:50:55.888Z,25.63
2018-12-17T01:53:24.627Z,28.80
2018-12-17T01:55:57.232Z,27.17
2018-12-17T01:58:29.370Z,26.53
2018-12-17T02:00:57.680Z,20.13
2018-12-17T02:03:26.379Z,17.53
2018-12-17T02:05:55.205Z,22.23
2018-12-17T02:08:23.999Z,23.40
2018-12-17T02:10:52.857Z,23.22
2018-12-17T02:13:21.564Z,23.10
2018-12-17T02:15:50.289Z,20.45
2018-12-17T02:18:19.108Z,17.30
2018-12-17T02:20:47.924Z,15.43
2018-12-17T02:23:16.660Z,15.37
2018-12-17T02:25:45.372Z,11.23
2018-12-17T02:28:14.296Z,14.55
2018-12-17T02:30:43.214Z,15.25
2018-12-17T02:33:12.144Z,18.20
2018-12-17T02:35:40.902Z,15.13
2018-12-17T02:38:09.665Z,20.70
2018-12-17T02:40:38.452Z,25.03
2018-12-17T02:43:07.214Z,26.93
2018-12-17T02:45:35.963Z,20.47
2018-12-17T02:48:04.815Z,21.00
2018-12-17T02:50:33.655Z,23.70
2018-12-17T02:53:02.362Z,22.57
2018-12-17T02:55:31.108Z,18.60
2018-12-17T02:57:59.940Z,17.67
2018-12-17T03:00:28.700Z,17.32
2018-12-17T03:02:57.504Z,14.87
2018-12-17T03:05:26.413Z,16.00
2018-12-17T03:07:55.212Z,19.33
2018-12-17T03:10:23.963Z,18.03
2018-12-17T03:12:53.239Z,18.65
2018-12-17T03:15:22.007Z,17.40
2018-12-17T03:17:50.796Z,15.07
2018-12-17T03:20:19.486Z,14.90
2018-12-17T03:22:48.303Z,18.33
2018-12-17T03:25:17.064Z,18.33
2018-12-17T03:27:45.896Z,22.32
2018-12-17T03:30:14.599Z,22.90
2018-12-17T03:32:43.389Z,16.05
2018-12-17T03:35:12.200Z,22.90
2018-12-17T03:37:40.965Z,17.60
2018-12-17T03:40:09.801Z,16.30
2018-12-17T03:42:39.538Z,18.43
2018-12-17T03:45:08.395Z,21.63
2018-12-17T03:47:37.193Z,19.10
2018-12-17T03:50:07.961Z,21.17
2018-12-17T03:52:36.785Z,20.90
2018-12-17T03:55:05.813Z,17.57
2018-12-17T03:57:34.567Z,16.67
2018-12-17T04:00:03.591Z,16.12
2018-12-17T04:02:32.535Z,11.12
2018-12-17T04:05:01.498Z,14.37
2018-12-17T04:07:31.444Z,12.90
2018-12-17T04:10:00.213Z,19.17
2018-12-17T04:12:30.246Z,18.97
2018-12-17T04:14:59.301Z,17.15
2018-12-17T04:17:29.132Z,15.23
2018-12-17T04:19:57.883Z,12.00
2018-12-17T04:22:26.609Z,15.13
2018-12-17T04:24:55.325Z,11.67
2018-12-17T04:27:24.160Z,14.33
2018-12-17T04:29:52.881Z,15.13
2018-12-17T04:32:21.617Z,12.27
2018-12-17T04:34:50.358Z,10.57
2018-12-17T04:37:19.047Z,25.08
2018-12-17T04:39:47.794Z,62.23
2018-12-17T04:42:16.590Z,35.23
2018-12-17T04:44:45.596Z,31.30
2018-12-17T04:47:14.385Z,37.57
2018-12-17T04:49:43.093Z,20.20
2018-12-17T04:52:11.796Z,9.40
2018-12-17T04:54:40.505Z,11.53
2018-12-17T04:57:09.238Z,10.40
2018-12-17T04:59:37.933Z,10.70
2018-12-17T05:02:06.640Z,11.88
2018-12-17T05:04:36.543Z,13.60
2018-12-17T05:07:05.356Z,15.50
2018-12-17T05:09:34.103Z,12.07
2018-12-17T05:12:02.954Z,10.05
2018-12-17T05:14:31.707Z,19.00
2018-12-17T05:17:00.481Z,17.77
2018-12-17T05:19:29.299Z,19.85
2018-12-17T05:21:58.155Z,13.25
2018-12-17T05:24:26.989Z,21.67
2018-12-17T05:26:55.763Z,15.30
2018-12-17T05:29:24.533Z,19.73
2018-12-17T05:31:53.292Z,20.07
2018-12-17T05:34:22.037Z,20.23
2018-12-17T05:36:50.728Z,19.53
2018-12-17T05:39:19.445Z,23.40
2018-12-17T05:41:48.220Z,27.82
2018-12-17T05:44:17.011Z,19.67
2018-12-17T05:46:45.779Z,26.37
2018-12-17T05:49:14.485Z,27.93
2018-12-17T05:51:43.260Z,22.77
2018-12-17T05:54:11.968Z,25.12
2018-12-17T05:56:40.690Z,18.67
2018-12-17T05:59:10.109Z,20.07
2018-12-17T06:01:38.987Z,20.83
2018-12-17T06:04:07.754Z,19.03
2018-12-17T06:06:36.484Z,18.02
2018-12-17T06:09:09.152Z,34.13
2018-12-17T06:11:38.449Z,20.83
2018-12-17T06:14:07.236Z,22.95
2018-12-17T06:16:36.061Z,17.73
2018-12-17T06:19:04.844Z,13.97
2018-12-17T06:21:33.673Z,20.13
2018-12-17T06:24:02.505Z,19.10
2018-12-17T06:26:32.248Z,22.80
2018-12-17T06:29:00.950Z,23.63
2018-12-17T06:31:29.700Z,21.73
2018-12-17T06:33:58.405Z,19.23
2018-12-17T06:36:27.188Z,21.97
2018-12-17T06:38:55.928Z,20.00
2018-12-17T06:41:24.688Z,25.77
2018-12-17T06:43:53.439Z,18.63
2018-12-17T06:46:22.220Z,14.13
2018-12-17T06:48:51.027Z,17.07
2018-12-17T06:51:22.564Z,16.47
2018-12-17T06:53:51.356Z,16.95
2018-12-17T06:56:20.116Z,18.77
2018-12-17T06:58:48.931Z,18.67
2018-12-17T07:01:17.736Z,18.07
2018-12-17T07:03:46.500Z,16.93
2018-12-17T07:06:15.237Z,16.32
2018-12-17T07:08:44.012Z,13.65
2018-12-17T07:11:12.713Z,23.00
2018-12-17T07:13:41.409Z,20.70
2018-12-17T07:16:10.166Z,17.37
2018-12-17T07:18:38.856Z,24.30
2018-12-17T07:21:07.625Z,16.00
2018-12-17T07:23:36.321Z,20.97
2018-12-17T07:26:05.112Z,17.47
2018-12-17T07:28:33.809Z,17.07
2018-12-17T07:31:02.586Z,19.30
2018-12-17T07:33:31.313Z,16.90
2018-12-17T07:36:00.071Z,21.00
2018-12-17T07:38:28.773Z,22.70
2018-12-17T07:40:57.599Z,14.63
2018-12-17T07:43:26.408Z,19.07
2018-12-17T07:45:55.144Z,23.10
2018-12-17T07:48:23.923Z,20.30
2018-12-17T07:50:52.624Z,23.12
2018-12-17T07:53:21.324Z,20.73
2018-12-17T07:55:50.089Z,21.00
2018-12-17T07:58:18.968Z,17.65
2018-12-17T08:00:47.765Z,23.63
2018-12-17T08:03:16.528Z,17.60
2018-12-17T08:05:45.241Z,17.87
2018-12-17T08:08:13.995Z,300.50
2018-12-17T08:10:42.777Z,477.67
2018-12-17T08:13:11.920Z,326.17
2018-12-17T08:15:40.624Z,432.87
2018-12-17T08:18:19.623Z,504.13
2018-12-17T08:20:49.461Z,24.70
2018-12-17T08:23:18.458Z,21.77
2018-12-17T08:25:47.293Z,25.37
2018-12-17T08:28:16.392Z,36.50
2018-12-17T08:30:45.854Z,17.40
2018-12-17T08:33:14.515Z,24.27
2018-12-17T08:35:43.536Z,17.02
2018-12-17T08:38:12.313Z,15.53
2018-12-17T08:40:41.072Z,14.93
2018-12-17T08:43:10.499Z,24.30
2018-12-17T08:45:39.268Z,17.70
2018-12-17T08:48:08.080Z,13.60
2018-12-17T08:50:36.868Z,20.73
2018-12-17T08:53:05.628Z,20.07
2018-12-17T08:55:34.352Z,15.40
2018-12-17T08:58:03.284Z,16.70
2018-12-17T09:00:32.084Z,15.07
2018-12-17T09:03:00.980Z,19.43
2018-12-17T09:05:30.256Z,41.20
2018-12-17T09:07:59.080Z,15.83
2018-12-17T09:10:27.948Z,12.40
2018-12-17T09:12:56.701Z,10.75
2018-12-17T09:15:25.488Z,16.67
2018-12-17T09:17:54.235Z,14.63
2018-12-17T09:20:23.102Z,11.85
2018-12-17T09:22:51.896Z,20.07
2018-12-17T09:25:20.719Z,17.40
2018-12-17T09:27:49.595Z,18.17
2018-12-17T09:30:18.740Z,10.60
2018-12-17T09:32:47.995Z,18.53
2018-12-17T09:35:16.830Z,11.60
2018-12-17T09:37:45.600Z,15.20
2018-12-17T09:40:14.500Z,14.55
2018-12-17T09:42:43.293Z,18.17
2018-12-17T09:45:12.208Z,13.30
2018-12-17T09:47:41.084Z,14.77
2018-12-17T09:50:09.911Z,11.83
2018-12-17T09:52:38.704Z,11.03
2018-12-17T09:55:07.519Z,15.93
2018-12-17T09:57:36.377Z,10.17
2018-12-17T10:00:06.308Z,15.20
2018-12-17T10:02:35.182Z,13.78
2018-12-17T10:05:04.213Z,10.13
2018-12-17T10:07:32.912Z,20.70
2018-12-17T10:10:01.672Z,12.47
2018-12-17T10:12:31.916Z,17.07
2018-12-17T10:15:00.637Z,13.15
2018-12-17T10:17:29.426Z,9.73
2018-12-17T10:19:58.136Z,8.70
2018-12-17T10:22:26.935Z,12.37
2018-12-17T10:24:55.744Z,11.97
2018-12-17T10:27:24.575Z,12.07
2018-12-17T10:29:53.390Z,10.50
2018-12-17T10:32:22.185Z,10.75
2018-12-17T10:34:50.953Z,10.10
2018-12-17T10:37:19.785Z,9.70
2018-12-17T10:39:48.636Z,9.50
2018-12-17T10:42:17.332Z,7.40
2018-12-17T10:44:46.138Z,11.43
2018-12-17T10:47:14.964Z,10.20
2018-12-17T10:49:43.760Z,12.93
2018-12-17T10:52:12.552Z,12.90
2018-12-17T10:54:41.272Z,14.35
2018-12-17T10:57:10.144Z,9.10
2018-12-17T10:59:38.869Z,10.90
2018-12-17T11:02:16.870Z,8.27
2018-12-17T11:04:49.744Z,8.68
2018-12-17T11:07:18.588Z,8.93
2018-12-17T11:09:47.268Z,9.20
2018-12-17T11:12:16.092Z,7.40
2018-12-17T11:14:44.861Z,13.07
2018-12-17T11:17:13.607Z,10.17
2018-12-17T11:19:42.299Z,6.07
2018-12-17T11:22:10.992Z,8.33
2018-12-17T11:24:39.748Z,7.40
2018-12-17T11:27:08.572Z,6.93
2018-12-17T11:29:37.299Z,5.67
2018-12-17T11:32:11.633Z,7.33
2018-12-17T11:34:36.928Z,7.40
2018-12-17T11:37:05.725Z,7.00
2018-12-17T11:39:34.441Z,8.35
2018-12-17T11:42:03.188Z,10.33
2018-12-17T11:44:31.895Z,9.37
2018-12-17T11:47:00.755Z,8.70
2018-12-17T11:49:29.548Z,7.62
2018-12-17T11:51:58.400Z,9.93
2018-12-17T11:54:27.146Z,9.80
2018-12-17T11:57:29.036Z,7.23
2018-12-17T11:59:59.775Z,7.47
2018-12-17T12:02:28.547Z,8.53
2018-12-17T12:04:57.244Z,8.10
2018-12-17T12:07:26.008Z,8.08
2018-12-17T12:09:54.740Z,7.97
2018-12-17T12:12:23.508Z,13.77
2018-12-17T12:14:52.296Z,8.73
2018-12-17T12:17:21.052Z,9.93
2018-12-17T12:19:49.929Z,8.50
2018-12-17T12:22:18.624Z,7.97
2018-12-17T12:24:47.309Z,12.10
2018-12-17T12:27:16.065Z,8.60
2018-12-17T12:29:44.773Z,6.63
2018-12-17T12:32:13.801Z,8.73
2018-12-17T12:34:42.493Z,7.70
2018-12-17T12:37:11.254Z,11.80
2018-12-17T12:39:41.040Z,8.03
2018-12-17T12:42:09.808Z,14.10
2018-12-17T12:44:38.500Z,5.50
2018-12-17T12:47:07.332Z,8.20
2018-12-17T12:49:36.107Z,8.23
2018-12-17T12:52:04.840Z,7.40
2018-12-17T12:54:33.544Z,9.80
2018-12-17T12:57:02.263Z,10.87
2018-12-17T12:59:31.036Z,7.50
2018-12-17T13:01:59.820Z,7.57
2018-12-17T13:04:28.567Z,7.60
2018-12-17T13:06:57.412Z,11.77
2018-12-17T13:09:26.131Z,8.18
2018-12-17T13:11:55.073Z,8.83
2018-12-17T13:14:23.992Z,8.40
2018-12-17T13:16:52.680Z,6.93
2018-12-17T13:19:21.378Z,9.10
2018-12-17T13:21:50.131Z,11.03
2018-12-17T13:24:18.843Z,13.93
2018-12-17T13:26:47.572Z,11.00
2018-12-17T13:29:16.344Z,10.63
2018-12-17T13:31:45.120Z,12.53
2018-12-17T13:34:13.874Z,9.87
2018-12-17T13:36:42.560Z,10.07
2018-12-17T13:39:11.351Z,16.43
2018-12-17T13:41:40.132Z,8.77
2018-12-17T13:44:08.832Z,12.83
2018-12-17T13:46:37.672Z,9.20
2018-12-17T13:49:06.431Z,11.40
2018-12-17T13:51:37.244Z,10.67
2018-12-17T13:54:07.108Z,9.37
2018-12-17T13:56:35.917Z,13.47
2018-12-17T13:59:04.760Z,9.60
2018-12-17T14:01:34.616Z,10.97
2018-12-17T14:04:03.388Z,8.40
2018-12-17T14:06:32.150Z,10.08
2018-12-17T14:09:00.913Z,8.63
2018-12-17T14:11:31.779Z,12.27
2018-12-17T14:14:00.564Z,11.43
2018-12-17T14:16:34.884Z,10.07
2018-12-17T14:19:09.088Z,10.37
2018-12-17T14:21:43.651Z,11.40
2018-12-17T14:24:12.340Z,7.17
2018-12-17T14:26:41.167Z,8.93
2018-12-17T14:29:09.926Z,11.88
2018-12-17T14:31:38.687Z,11.07
2018-12-17T14:34:07.388Z,10.20
2018-12-17T14:36:36.229Z,10.57
2018-12-17T14:39:07.116Z,15.10
2018-12-17T14:41:37.153Z,18.97
2018-12-17T14:44:11.415Z,10.40
2018-12-17T14:46:45.717Z,9.93
2018-12-17T14:49:14.412Z,13.90
2018-12-17T14:51:43.844Z,14.57
2018-12-17T14:54:12.697Z,11.10
2018-12-17T14:56:41.449Z,10.80
2018-12-17T14:59:10.240Z,6.93
2018-12-17T15:01:39.076Z,16.43
2018-12-17T15:04:07.850Z,11.13
2018-12-17T15:06:36.668Z,11.20
2018-12-17T15:09:07.145Z,7.10
2018-12-17T15:11:37.897Z,5.77
2018-12-17T15:14:06.636Z,12.60
2018-12-17T15:16:35.414Z,8.23
2018-12-17T15:19:04.263Z,7.40
2018-12-17T15:21:33.012Z,8.53
2018-12-17T15:24:01.740Z,4.93
2018-12-17T15:26:30.496Z,5.20
2018-12-17T15:28:59.300Z,8.93
2018-12-17T15:31:28.239Z,8.55
2018-12-17T15:33:57.077Z,9.77
2018-12-17T15:36:25.880Z,7.10
2018-12-17T15:38:54.592Z,4.13
2018-12-17T15:41:23.276Z,9.30
2018-12-17T15:48:58.829Z,7.57
2018-12-17T15:51:27.648Z,11.83
2018-12-17T15:53:56.353Z,9.83
2018-12-17T15:56:26.070Z,7.83
2018-12-17T15:58:54.835Z,9.00
2018-12-17T16:01:23.532Z,10.90
2018-12-17T16:03:52.413Z,9.28
2018-12-17T16:06:21.132Z,10.33
2018-12-17T16:08:49.952Z,5.83
2018-12-17T16:11:18.704Z,9.43
2018-12-17T16:13:47.453Z,8.67
2018-12-17T16:16:16.353Z,9.48
2018-12-17T16:18:45.124Z,12.33
2018-12-17T16:21:13.804Z,9.90
2018-12-17T16:23:42.679Z,10.57
2018-12-17T16:26:11.521Z,7.93
2018-12-17T16:28:40.292Z,10.43
2018-12-17T16:31:09.048Z,6.83
2018-12-17T16:33:37.767Z,12.97
2018-12-17T16:36:06.546Z,9.57
2018-12-17T16:38:35.372Z,13.17
2018-12-17T16:41:04.200Z,11.53
2018-12-17T16:43:33.076Z,16.63
2018-12-17T16:46:03.630Z,11.90
2018-12-17T16:48:32.496Z,9.47
2018-12-17T16:51:01.316Z,8.95
2018-12-17T16:53:30.112Z,10.63
2018-12-17T16:55:59.239Z,7.30
2018-12-17T16:58:27.952Z,7.17
2018-12-17T17:00:56.640Z,7.87
2018-12-17T17:03:25.416Z,6.33
2018-12-17T17:05:54.236Z,8.87
2018-12-17T17:08:23.000Z,5.77
2018-12-17T17:10:51.768Z,10.43
2018-12-17T17:13:20.548Z,7.73
2018-12-17T17:15:49.294Z,9.43
2018-12-17T17:18:17.980Z,8.20
2018-12-17T17:20:46.680Z,8.27
2018-12-17T17:23:15.373Z,10.07
2018-12-17T17:25:44.139Z,9.57
2018-12-17T17:28:12.923Z,21.57
2018-12-17T17:30:41.680Z,14.63
2018-12-17T17:33:10.387Z,12.93
2018-12-17T17:35:39.151Z,12.07
2018-12-17T17:38:07.899Z,15.57
2018-12-17T17:40:36.664Z,13.03
2018-12-17T17:43:05.424Z,12.20
2018-12-17T17:45:34.163Z,14.87
2018-12-17T17:48:02.996Z,10.93
2018-12-17T17:50:32.623Z,14.73
2018-12-17T17:53:01.338Z,10.17
2018-12-17T17:55:30.209Z,9.75
2018-12-17T17:57:58.956Z,6.50
2018-12-17T18:00:27.715Z,13.03
2018-12-17T18:02:56.532Z,8.07
2018-12-17T18:05:25.239Z,12.60
2018-12-17T18:07:54.151Z,10.33
2018-12-17T18:10:22.940Z,11.93
2018-12-17T18:12:51.663Z,10.13
2018-12-17T18:15:20.352Z,12.87
2018-12-17T18:17:49.039Z,10.73
2018-12-17T18:20:17.795Z,8.63
2018-12-17T18:22:46.548Z,10.90
2018-12-17T18:25:15.312Z,8.37
2018-12-17T18:27:44.035Z,10.47
2018-12-17T18:30:12.852Z,7.00
2018-12-17T18:32:41.603Z,11.23
2018-12-17T18:35:10.411Z,7.00
2018-12-17T18:37:39.272Z,11.67
2018-12-17T18:40:08.112Z,8.75
2018-12-17T18:42:36.888Z,8.53
2018-12-17T18:45:06.553Z,12.60
2018-12-17T18:47:35.468Z,9.47
2018-12-17T18:50:04.819Z,10.23
2018-12-17T18:52:33.549Z,8.07
2018-12-17T18:55:02.365Z,10.00
2018-12-17T18:57:33.477Z,15.03
2018-12-17T19:00:02.226Z,10.43
2018-12-17T19:02:33.226Z,12.78
2018-12-17T19:05:02.172Z,13.73
2018-12-17T19:07:30.952Z,9.90
2018-12-17T19:09:59.704Z,9.37
2018-12-17T19:12:28.394Z,7.70
2018-12-17T19:14:57.190Z,9.97
2018-12-17T19:17:25.921Z,12.60
2018-12-17T19:19:54.652Z,17.43
2018-12-17T19:22:23.339Z,19.97
2018-12-17T19:24:52.200Z,14.17
2018-12-17T19:27:20.956Z,13.13
2018-12-17T19:29:49.768Z,15.13
2018-12-17T19:32:18.647Z,14.07
2018-12-17T19:34:47.340Z,12.20
2018-12-17T19:37:16.040Z,14.75
2018-12-17T19:39:44.825Z,12.23
2018-12-17T19:42:13.621Z,13.17
2018-12-17T19:44:42.539Z,14.43
2018-12-17T19:47:11.310Z,15.10
2018-12-17T19:54:44.062Z,11.67
2018-12-17T19:57:12.940Z,13.80
2018-12-17T19:59:41.860Z,16.83
2018-12-17T20:02:10.688Z,13.37
2018-12-17T20:04:39.382Z,18.27
2018-12-17T20:07:08.148Z,22.33
2018-12-17T20:09:36.937Z,17.23
2018-12-17T20:12:05.668Z,20.53
2018-12-17T20:14:34.420Z,16.32
2018-12-17T20:17:03.252Z,16.17
2018-12-17T20:19:32.065Z,17.57
2018-12-17T20:22:00.914Z,17.40
2018-12-17T20:24:29.636Z,16.80
2018-12-17T20:26:58.446Z,16.70
2018-12-17T20:29:27.252Z,22.98
2018-12-17T20:31:56.049Z,18.67
2018-12-17T20:34:24.885Z,20.90
2018-12-17T20:36:53.672Z,15.50
2018-12-17T20:39:22.400Z,14.47
2018-12-17T20:41:51.152Z,17.27
2018-12-17T20:44:19.956Z,15.97
2018-12-17T20:46:48.653Z,15.33
2018-12-17T20:49:17.423Z,14.93
2018-12-17T20:51:47.215Z,13.23
2018-12-17T20:54:15.992Z,15.80
2018-12-17T20:56:44.792Z,17.07
2018-12-17T20:59:13.615Z,15.10
2018-12-17T21:01:42.341Z,15.47
2018-12-17T21:04:11.151Z,14.77
2018-12-17T21:06:40.051Z,17.17
2018-12-17T21:09:08.992Z,16.60
2018-12-17T21:11:38.713Z,15.93
2018-12-17T21:14:07.472Z,21.60
2018-12-17T21:16:36.043Z,14.13
2018-12-17T21:19:05.284Z,16.77
2018-12-17T21:21:34.129Z,16.53
2018-12-17T21:24:02.940Z,13.30
2018-12-17T21:26:31.736Z,16.97
2018-12-17T21:29:00.517Z,21.37
2018-12-17T21:31:29.320Z,15.37
2018-12-17T21:33:59.048Z,26.47
2018-12-17T21:36:27.813Z,20.90
2018-12-17T21:38:56.657Z,16.20
2018-12-17T21:41:25.380Z,15.77
2018-12-17T21:43:54.153Z,17.77
2018-12-17T21:46:23.025Z,15.10
2018-12-17T21:48:51.931Z,12.60
2018-12-17T21:51:20.499Z,12.82
2018-12-17T21:53:48.900Z,10.50
2018-12-17T21:56:17.516Z,12.50
2018-12-17T21:58:46.521Z,8.45
2018-12-17T22:01:15.264Z,11.97
2018-12-17T22:03:44.248Z,10.18
2018-12-17T22:06:13.183Z,11.55
2018-12-17T22:08:42.020Z,10.97
2018-12-17T22:11:11.188Z,18.37
2018-12-17T22:13:40.068Z,12.53
2018-12-17T22:16:08.809Z,12.70
2018-12-17T22:18:37.643Z,13.37
2018-12-17T22:21:06.372Z,18.20
2018-12-17T22:23:36.160Z,14.67
2018-12-17T22:26:05.195Z,14.10
2018-12-17T22:28:33.900Z,11.63
2018-12-17T22:31:02.838Z,14.27
2018-12-17T22:33:31.645Z,12.13
2018-12-17T22:36:01.148Z,14.73
2018-12-17T22:38:30.276Z,13.38
2018-12-17T22:40:59.170Z,11.87
2018-12-17T22:43:27.924Z,15.60
2018-12-17T22:45:56.772Z,14.27
2018-12-17T22:48:25.656Z,14.17
2018-12-17T22:50:54.515Z,9.63
2018-12-17T22:53:23.267Z,9.80
2018-12-17T22:55:52.032Z,13.73
2018-12-17T22:58:20.803Z,12.57
2018-12-17T23:00:49.692Z,12.33
2018-12-17T23:03:19.280Z,14.07
2018-12-17T23:05:50.069Z,16.47
2018-12-17T23:08:19.348Z,15.33
2018-12-17T23:10:59.364Z,13.18
2018-12-17T23:13:39.721Z,16.20
2018-12-17T23:16:13.939Z,14.00
2018-12-17T23:18:41.764Z,11.50
2018-12-17T23:21:12.824Z,16.83
2018-12-17T23:23:43.578Z,11.90
2018-12-17T23:26:14.315Z,15.47
2018-12-17T23:28:42.911Z,14.00
2018-12-17T23:31:11.572Z,17.30
2018-12-17T23:33:40.339Z,12.35
2018-12-17T23:36:08.903Z,15.67
2018-12-17T23:38:37.987Z,15.72
2018-12-17T23:41:06.744Z,12.87
2018-12-17T23:43:35.640Z,10.53
2018-12-17T23:46:04.449Z,14.10
2018-12-17T23:48:33.152Z,13.53
2018-12-17T23:51:01.916Z,10.60
2018-12-17T23:53:30.639Z,16.13
2018-12-17T23:55:59.332Z,13.93
2018-12-17T23:58:28.108Z,15.13
